sensor_id;sensor_type;location;lat;lon;timestamp;pressure;altitude;pressure_sealevel;temperature;humidity
44359;BME280;30077;52.474;13.326;2023-04-07T00:01:18;101315.09;;;7.57;50.77
44359;BME280;30077;52.474;13.326;2023-04-07T00:06:18;101308.03;;;7.56;50.68
44359;BME280;30077;52.474;13.326;2023-04-07T00:11:18;101304.53;;;7.54;50.97
44359;BME280;30077;52.474;13.326;2023-04-07T00:16:19;101301.19;;;7.46;51.17
44359;BME280;30077;52.474;13.326;2023-04-07T00:21:19;101310.25;;;7.36;51.78
44359;BME280;30077;52.474;13.326;2023-04-07T00:26:19;101312.19;;;7.28;52.10
44359;BME280;30077;52.474;13.326;2023-04-07T00:31:20;101307.94;;;7.20;52.25
44359;BME280;30077;52.474;13.326;2023-04-07T00:36:20;101299.16;;;7.17;52.25
44359;BME280;30077;52.474;13.326;2023-04-07T00:41:20;101299.09;;;7.18;52.36
44359;BME280;30077;52.474;13.326;2023-04-07T00:46:21;101300.94;;;7.16;52.44
44359;BME280;30077;52.474;13.326;2023-04-07T00:51:21;101292.94;;;7.18;52.26
44359;BME280;30077;52.474;13.326;2023-04-07T00:56:21;101290.47;;;7.09;51.87
44359;BME280;30077;52.474;13.326;2023-04-07T01:01:23;101286.00;;;7.12;51.91
44359;BME280;30077;52.474;13.326;2023-04-07T01:06:27;101282.47;;;7.10;51.04
44359;BME280;30077;52.474;13.326;2023-04-07T01:16:38;101274.72;;;7.01;50.79
44359;BME280;30077;52.474;13.326;2023-04-07T01:21:42;101269.19;;;7.12;50.76
44359;BME280;30077;52.474;13.326;2023-04-07T01:26:43;101268.44;;;7.05;50.50
44359;BME280;30077;52.474;13.326;2023-04-07T01:31:43;101264.13;;;6.99;50.57
44359;BME280;30077;52.474;13.326;2023-04-07T01:36:45;101263.19;;;7.02;50.15
44359;BME280;30077;52.474;13.326;2023-04-07T01:41:46;101265.06;;;6.97;50.29
44359;BME280;30077;52.474;13.326;2023-04-07T01:46:47;101256.38;;;6.89;50.13
44359;BME280;30077;52.474;13.326;2023-04-07T01:51:49;101258.00;;;6.96;49.95
44359;BME280;30077;52.474;13.326;2023-04-07T01:56:50;101256.66;;;6.77;50.22
44359;BME280;30077;52.474;13.326;2023-04-07T02:01:50;101254.91;;;6.75;50.06
44359;BME280;30077;52.474;13.326;2023-04-07T02:06:52;101254.53;;;6.92;49.89
44359;BME280;30077;52.474;13.326;2023-04-07T02:11:53;101253.78;;;6.86;50.17
44359;BME280;30077;52.474;13.326;2023-04-07T02:16:55;101252.97;;;6.84;50.08
44359;BME280;30077;52.474;13.326;2023-04-07T02:21:56;101248.75;;;6.73;50.46
44359;BME280;30077;52.474;13.326;2023-04-07T02:26:57;101238.84;;;6.83;50.27
44359;BME280;30077;52.474;13.326;2023-04-07T02:31:57;101246.69;;;6.88;50.60
44359;BME280;30077;52.474;13.326;2023-04-07T02:36:59;101243.84;;;6.97;50.27
44359;BME280;30077;52.474;13.326;2023-04-07T02:42:00;101233.50;;;6.85;50.78
44359;BME280;30077;52.474;13.326;2023-04-07T02:47:00;101235.31;;;6.83;50.84
44359;BME280;30077;52.474;13.326;2023-04-07T02:52:00;101230.84;;;6.85;50.95
44359;BME280;30077;52.474;13.326;2023-04-07T02:57:00;101233.47;;;6.86;50.85
44359;BME280;30077;52.474;13.326;2023-04-07T03:02:01;101234.13;;;6.96;51.07
44359;BME280;30077;52.474;13.326;2023-04-07T03:07:01;101235.38;;;6.78;51.15
44359;BME280;30077;52.474;13.326;2023-04-07T03:12:01;101237.00;;;6.87;51.32
44359;BME280;30077;52.474;13.326;2023-04-07T03:17:02;101234.34;;;6.87;51.53
44359;BME280;30077;52.474;13.326;2023-04-07T03:22:02;101219.31;;;6.86;51.54
44359;BME280;30077;52.474;13.326;2023-04-07T03:27:02;101222.94;;;6.82;51.59
44359;BME280;30077;52.474;13.326;2023-04-07T03:32:02;101215.84;;;6.82;51.74
44359;BME280;30077;52.474;13.326;2023-04-07T03:37:02;101210.25;;;6.96;51.54
44359;BME280;30077;52.474;13.326;2023-04-07T03:42:03;101215.50;;;6.99;51.53
44359;BME280;30077;52.474;13.326;2023-04-07T03:47:03;101216.28;;;7.04;51.44
44359;BME280;30077;52.474;13.326;2023-04-07T03:52:03;101212.00;;;6.97;51.37
44359;BME280;30077;52.474;13.326;2023-04-07T03:57:04;101209.94;;;7.11;51.43
44359;BME280;30077;52.474;13.326;2023-04-07T04:02:04;101208.19;;;7.10;51.85
44359;BME280;30077;52.474;13.326;2023-04-07T04:07:04;101203.56;;;7.20;51.37
44359;BME280;30077;52.474;13.326;2023-04-07T04:12:05;101214.34;;;7.12;51.59
44359;BME280;30077;52.474;13.326;2023-04-07T04:17:05;101206.22;;;7.18;51.47
44359;BME280;30077;52.474;13.326;2023-04-07T04:22:05;101212.16;;;7.30;51.33
44359;BME280;30077;52.474;13.326;2023-04-07T04:27:05;101220.81;;;7.39;50.96
44359;BME280;30077;52.474;13.326;2023-04-07T04:32:06;101210.06;;;7.44;50.92
44359;BME280;30077;52.474;13.326;2023-04-07T04:37:06;101216.72;;;7.24;50.90
44359;BME280;30077;52.474;13.326;2023-04-07T04:42:06;101221.16;;;7.24;50.82
44359;BME280;30077;52.474;13.326;2023-04-07T04:47:06;101218.19;;;7.38;50.96
44359;BME280;30077;52.474;13.326;2023-04-07T04:52:06;101218.00;;;7.45;50.76
44359;BME280;30077;52.474;13.326;2023-04-07T04:57:07;101222.91;;;7.25;51.48
44359;BME280;30077;52.474;13.326;2023-04-07T05:02:07;101225.25;;;7.39;51.45
44359;BME280;30077;52.474;13.326;2023-04-07T05:07:11;101219.97;;;7.37;51.45
44359;BME280;30077;52.474;13.326;2023-04-07T05:12:11;101221.09;;;7.64;51.26
44359;BME280;30077;52.474;13.326;2023-04-07T05:17:11;101218.03;;;7.44;51.61
44359;BME280;30077;52.474;13.326;2023-04-07T05:22:12;101234.06;;;7.41;51.66
44359;BME280;30077;52.474;13.326;2023-04-07T05:27:12;101228.69;;;7.42;51.73
44359;BME280;30077;52.474;13.326;2023-04-07T05:32:12;101219.84;;;7.81;51.14
44359;BME280;30077;52.474;13.326;2023-04-07T05:37:12;101226.94;;;7.79;51.18
44359;BME280;30077;52.474;13.326;2023-04-07T05:42:12;101226.88;;;7.82;51.32
44359;BME280;30077;52.474;13.326;2023-04-07T05:47:13;101226.50;;;7.97;51.17
44359;BME280;30077;52.474;13.326;2023-04-07T05:52:13;101220.56;;;8.20;50.69
44359;BME280;30077;52.474;13.326;2023-04-07T05:57:13;101223.28;;;8.18;50.23
44359;BME280;30077;52.474;13.326;2023-04-07T06:02:14;101212.88;;;8.09;50.55
44359;BME280;30077;52.474;13.326;2023-04-07T06:07:14;101213.59;;;8.50;50.22
44359;BME280;30077;52.474;13.326;2023-04-07T06:12:14;101225.53;;;8.66;49.91
44359;BME280;30077;52.474;13.326;2023-04-07T06:17:15;101234.28;;;8.72;49.75
44359;BME280;30077;52.474;13.326;2023-04-07T06:22:16;101228.81;;;8.09;50.92
44359;BME280;30077;52.474;13.326;2023-04-07T06:27:16;101236.72;;;7.77;51.68
44359;BME280;30077;52.474;13.326;2023-04-07T06:32:17;101241.03;;;7.82;52.04
44359;BME280;30077;52.474;13.326;2023-04-07T06:37:17;101244.59;;;7.81;52.24
44359;BME280;30077;52.474;13.326;2023-04-07T06:42:18;101241.50;;;7.98;52.16
44359;BME280;30077;52.474;13.326;2023-04-07T06:47:18;101241.69;;;7.92;52.15
44359;BME280;30077;52.474;13.326;2023-04-07T06:52:18;101240.66;;;8.32;51.77
44359;BME280;30077;52.474;13.326;2023-04-07T06:57:18;101245.84;;;8.02;52.15
44359;BME280;30077;52.474;13.326;2023-04-07T07:02:19;101244.38;;;7.90;52.67
44359;BME280;30077;52.474;13.326;2023-04-07T07:07:19;101246.53;;;8.46;51.60
44359;BME280;30077;52.474;13.326;2023-04-07T07:12:20;101256.31;;;8.44;51.65
44359;BME280;30077;52.474;13.326;2023-04-07T07:17:20;101260.34;;;8.25;52.42
44359;BME280;30077;52.474;13.326;2023-04-07T07:22:20;101258.97;;;8.08;53.22
44359;BME280;30077;52.474;13.326;2023-04-07T07:27:20;101254.78;;;8.34;53.07
44359;BME280;30077;52.474;13.326;2023-04-07T07:32:21;101258.66;;;8.20;53.63
44359;BME280;30077;52.474;13.326;2023-04-07T07:37:21;101268.13;;;8.98;51.46
44359;BME280;30077;52.474;13.326;2023-04-07T07:42:21;101266.34;;;9.28;50.74
44359;BME280;30077;52.474;13.326;2023-04-07T07:47:21;101259.19;;;8.67;50.92
44359;BME280;30077;52.474;13.326;2023-04-07T07:52:22;101271.09;;;8.87;49.93
44359;BME280;30077;52.474;13.326;2023-04-07T07:57:22;101271.34;;;8.78;48.67
44359;BME280;30077;52.474;13.326;2023-04-07T08:02:22;101278.81;;;9.26;46.56
44359;BME280;30077;52.474;13.326;2023-04-07T08:07:28;101268.91;;;9.01;45.18
44359;BME280;30077;52.474;13.326;2023-04-07T08:12:28;101272.31;;;9.92;43.94
44359;BME280;30077;52.474;13.326;2023-04-07T08:17:28;101266.34;;;10.39;42.51
44359;BME280;30077;52.474;13.326;2023-04-07T08:22:29;101282.22;;;10.42;41.80
44359;BME280;30077;52.474;13.326;2023-04-07T08:27:29;101277.75;;;10.16;41.29
44359;BME280;30077;52.474;13.326;2023-04-07T08:32:37;101277.06;;;9.82;40.68
44359;BME280;30077;52.474;13.326;2023-04-07T08:37:37;101285.34;;;10.01;39.29
44359;BME280;30077;52.474;13.326;2023-04-07T08:42:40;101280.50;;;9.30;39.87
44359;BME280;30077;52.474;13.326;2023-04-07T08:47:40;101285.06;;;10.10;38.56
44359;BME280;30077;52.474;13.326;2023-04-07T08:52:45;101277.56;;;10.22;38.42
44359;BME280;30077;52.474;13.326;2023-04-07T08:57:48;101294.25;;;10.00;37.94
44359;BME280;30077;52.474;13.326;2023-04-07T09:02:50;101286.16;;;10.56;37.36
44359;BME280;30077;52.474;13.326;2023-04-07T09:07:50;101291.22;;;10.39;37.73
44359;BME280;30077;52.474;13.326;2023-04-07T09:12:51;101306.16;;;10.70;37.36
44359;BME280;30077;52.474;13.326;2023-04-07T09:17:51;101307.13;;;10.67;37.52
44359;BME280;30077;52.474;13.326;2023-04-07T09:22:51;101300.88;;;10.68;37.82
44359;BME280;30077;52.474;13.326;2023-04-07T09:32:55;101300.47;;;9.73;36.43
44359;BME280;30077;52.474;13.326;2023-04-07T09:38:05;101298.13;;;9.62;34.91
44359;BME280;30077;52.474;13.326;2023-04-07T09:43:06;101304.22;;;9.95;34.75
44359;BME280;30077;52.474;13.326;2023-04-07T09:48:18;101310.19;;;9.46;36.82
44359;BME280;30077;52.474;13.326;2023-04-07T09:53:19;101310.53;;;9.91;36.60
44359;BME280;30077;52.474;13.326;2023-04-07T09:58:19;101313.94;;;9.96;36.38
44359;BME280;30077;52.474;13.326;2023-04-07T10:03:19;101314.66;;;10.81;35.50
44359;BME280;30077;52.474;13.326;2023-04-07T10:08:19;101305.78;;;10.29;35.96
44359;BME280;30077;52.474;13.326;2023-04-07T10:13:20;101307.91;;;10.46;36.21
44359;BME280;30077;52.474;13.326;2023-04-07T10:18:20;101318.53;;;9.91;37.98
44359;BME280;30077;52.474;13.326;2023-04-07T10:23:24;101309.22;;;10.04;37.75
44359;BME280;30077;52.474;13.326;2023-04-07T10:28:25;101304.31;;;10.72;37.11
44359;BME280;30077;52.474;13.326;2023-04-07T10:39:19;101317.63;;;9.92;38.55
44359;BME280;30077;52.474;13.326;2023-04-07T10:44:43;101309.25;;;9.48;40.23
44359;BME280;30077;52.474;13.326;2023-04-07T10:49:36;101310.16;;;10.03;40.06
44359;BME280;30077;52.474;13.326;2023-04-07T10:54:37;101307.22;;;10.39;40.14
44359;BME280;30077;52.474;13.326;2023-04-07T10:59:38;101301.47;;;11.01;39.15
44359;BME280;30077;52.474;13.326;2023-04-07T11:10:25;101306.28;;;11.39;41.59
44359;BME280;30077;52.474;13.326;2023-04-07T11:15:25;101295.53;;;10.43;46.61
44359;BME280;30077;52.474;13.326;2023-04-07T11:20:39;101301.25;;;10.04;52.11
44359;BME280;30077;52.474;13.326;2023-04-07T11:25:43;101304.38;;;9.62;55.13
44359;BME280;30077;52.474;13.326;2023-04-07T11:30:48;101295.16;;;10.79;56.20
44359;BME280;30077;52.474;13.326;2023-04-07T11:40:54;101297.25;;;9.61;59.57
44359;BME280;30077;52.474;13.326;2023-04-07T11:46:15;101294.47;;;9.66;62.36
44359;BME280;30077;52.474;13.326;2023-04-07T11:51:20;101294.94;;;10.35;63.40
44359;BME280;30077;52.474;13.326;2023-04-07T11:56:21;101295.91;;;10.04;66.32
44359;BME280;30077;52.474;13.326;2023-04-07T12:01:24;101295.81;;;10.07;66.42
44359;BME280;30077;52.474;13.326;2023-04-07T12:06:47;101298.47;;;9.79;68.01
44359;BME280;30077;52.474;13.326;2023-04-07T12:11:50;101288.31;;;9.05;73.87
44359;BME280;30077;52.474;13.326;2023-04-07T12:16:50;101289.72;;;9.48;73.95
44359;BME280;30077;52.474;13.326;2023-04-07T12:21:52;101291.38;;;8.91;75.60
44359;BME280;30077;52.474;13.326;2023-04-07T12:26:52;101292.56;;;9.12;77.07
44359;BME280;30077;52.474;13.326;2023-04-07T12:31:52;101294.19;;;8.85;78.57
44359;BME280;30077;52.474;13.326;2023-04-07T12:36:52;101301.44;;;8.80;79.63
44359;BME280;30077;52.474;13.326;2023-04-07T12:41:52;101297.34;;;8.68;81.35
44359;BME280;30077;52.474;13.326;2023-04-07T12:46:53;101297.91;;;9.10;79.88
44359;BME280;30077;52.474;13.326;2023-04-07T12:51:53;101296.41;;;9.61;78.70
44359;BME280;30077;52.474;13.326;2023-04-07T12:56:54;101302.41;;;9.08;80.00
44359;BME280;30077;52.474;13.326;2023-04-07T13:01:56;101298.94;;;9.36;80.10
44359;BME280;30077;52.474;13.326;2023-04-07T13:06:56;101293.59;;;9.06;81.66
44359;BME280;30077;52.474;13.326;2023-04-07T13:11:56;101301.69;;;8.71;81.86
44359;BME280;30077;52.474;13.326;2023-04-07T13:16:57;101291.63;;;8.82;81.69
44359;BME280;30077;52.474;13.326;2023-04-07T13:21:57;101288.63;;;8.94;82.47
44359;BME280;30077;52.474;13.326;2023-04-07T13:26:57;101294.03;;;8.91;81.89
44359;BME280;30077;52.474;13.326;2023-04-07T13:32:04;101288.25;;;9.37;80.14
44359;BME280;30077;52.474;13.326;2023-04-07T13:37:05;101285.81;;;9.30;79.07
44359;BME280;30077;52.474;13.326;2023-04-07T13:42:06;101283.38;;;9.80;78.08
44359;BME280;30077;52.474;13.326;2023-04-07T13:47:08;101286.53;;;9.64;77.59
44359;BME280;30077;52.474;13.326;2023-04-07T13:52:08;101282.03;;;9.67;77.69
44359;BME280;30077;52.474;13.326;2023-04-07T13:57:08;101279.00;;;9.49;78.19
44359;BME280;30077;52.474;13.326;2023-04-07T14:02:08;101282.53;;;8.90;79.61
44359;BME280;30077;52.474;13.326;2023-04-07T14:07:09;101280.97;;;9.44;78.72
44359;BME280;30077;52.474;13.326;2023-04-07T14:12:09;101282.66;;;10.01;77.91
44359;BME280;30077;52.474;13.326;2023-04-07T14:17:09;101276.53;;;9.43;80.75
44359;BME280;30077;52.474;13.326;2023-04-07T14:22:10;101274.25;;;9.01;81.70
44359;BME280;30077;52.474;13.326;2023-04-07T14:27:10;101271.09;;;9.46;81.30
44359;BME280;30077;52.474;13.326;2023-04-07T14:32:10;101267.88;;;8.76;84.70
44359;BME280;30077;52.474;13.326;2023-04-07T14:37:10;101269.94;;;8.64;86.21
44359;BME280;30077;52.474;13.326;2023-04-07T14:42:11;101267.38;;;8.61;88.28
44359;BME280;30077;52.474;13.326;2023-04-07T14:47:14;101267.25;;;8.97;88.20
44359;BME280;30077;52.474;13.326;2023-04-07T14:52:15;101273.50;;;8.63;89.25
44359;BME280;30077;52.474;13.326;2023-04-07T14:57:15;101275.72;;;8.48;89.30
44359;BME280;30077;52.474;13.326;2023-04-07T15:02:15;101271.63;;;8.67;89.53
44359;BME280;30077;52.474;13.326;2023-04-07T15:07:15;101269.09;;;8.62;91.09
44359;BME280;30077;52.474;13.326;2023-04-07T15:12:16;101262.81;;;8.32;92.27
44359;BME280;30077;52.474;13.326;2023-04-07T15:17:16;101270.03;;;8.61;92.34
44359;BME280;30077;52.474;13.326;2023-04-07T15:22:16;101265.41;;;8.34;92.84
44359;BME280;30077;52.474;13.326;2023-04-07T15:27:17;101280.31;;;8.05;93.83
44359;BME280;30077;52.474;13.326;2023-04-07T15:32:17;101286.59;;;8.37;93.02
44359;BME280;30077;52.474;13.326;2023-04-07T15:37:17;101271.13;;;8.18;95.84
44359;BME280;30077;52.474;13.326;2023-04-07T15:42:18;101279.53;;;8.36;94.76
44359;BME280;30077;52.474;13.326;2023-04-07T15:47:18;101267.72;;;8.13;96.32
44359;BME280;30077;52.474;13.326;2023-04-07T15:52:18;101280.47;;;7.99;97.25
44359;BME280;30077;52.474;13.326;2023-04-07T15:57:18;101270.19;;;8.19;96.77
44359;BME280;30077;52.474;13.326;2023-04-07T16:02:20;101265.88;;;8.17;97.39
44359;BME280;30077;52.474;13.326;2023-04-07T16:07:21;101278.50;;;8.07;99.12
44359;BME280;30077;52.474;13.326;2023-04-07T16:12:21;101274.84;;;8.11;98.64
44359;BME280;30077;52.474;13.326;2023-04-07T16:17:21;101276.38;;;8.20;98.55
44359;BME280;30077;52.474;13.326;2023-04-07T16:22:21;101274.59;;;8.20;98.44
44359;BME280;30077;52.474;13.326;2023-04-07T16:27:22;101284.41;;;8.18;98.91
44359;BME280;30077;52.474;13.326;2023-04-07T16:32:22;101274.53;;;8.24;99.18
44359;BME280;30077;52.474;13.326;2023-04-07T16:37:22;101290.78;;;8.11;99.46
44359;BME280;30077;52.474;13.326;2023-04-07T16:42:23;101286.41;;;8.46;97.93
44359;BME280;30077;52.474;13.326;2023-04-07T16:47:24;101270.84;;;8.63;97.17
44359;BME280;30077;52.474;13.326;2023-04-07T16:52:25;101284.34;;;8.57;96.54
44359;BME280;30077;52.474;13.326;2023-04-07T16:57:25;101287.66;;;8.65;96.88
44359;BME280;30077;52.474;13.326;2023-04-07T17:02:26;101287.81;;;8.59;96.35
44359;BME280;30077;52.474;13.326;2023-04-07T17:07:26;101291.66;;;8.48;97.74
44359;BME280;30077;52.474;13.326;2023-04-07T17:12:26;101292.88;;;8.68;97.28
44359;BME280;30077;52.474;13.326;2023-04-07T17:17:27;101299.94;;;8.70;97.71
44359;BME280;30077;52.474;13.326;2023-04-07T17:22:27;101295.03;;;8.87;96.84
44359;BME280;30077;52.474;13.326;2023-04-07T17:27:27;101290.13;;;8.39;97.94
44359;BME280;30077;52.474;13.326;2023-04-07T17:32:27;101300.31;;;8.56;99.39
44359;BME280;30077;52.474;13.326;2023-04-07T17:37:27;101309.41;;;8.47;98.79
44359;BME280;30077;52.474;13.326;2023-04-07T17:42:27;101313.94;;;8.43;99.83
44359;BME280;30077;52.474;13.326;2023-04-07T17:47:28;101317.41;;;8.46;100.00
44359;BME280;30077;52.474;13.326;2023-04-07T17:52:28;101324.59;;;8.42;100.00
44359;BME280;30077;52.474;13.326;2023-04-07T17:57:29;101333.72;;;8.30;100.00
44359;BME280;30077;52.474;13.326;2023-04-07T18:02:29;101336.22;;;8.38;100.00
44359;BME280;30077;52.474;13.326;2023-04-07T18:07:29;101344.56;;;8.23;100.00
44359;BME280;30077;52.474;13.326;2023-04-07T18:12:30;101334.00;;;8.55;99.99
44359;BME280;30077;52.474;13.326;2023-04-07T18:17:30;101341.84;;;8.26;100.00
44359;BME280;30077;52.474;13.326;2023-04-07T18:22:30;101346.91;;;7.99;100.00
44359;BME280;30077;52.474;13.326;2023-04-07T18:27:31;101351.47;;;8.30;100.00
44359;BME280;30077;52.474;13.326;2023-04-07T18:32:31;101349.03;;;8.20;100.00
44359;BME280;30077;52.474;13.326;2023-04-07T18:37:31;101355.13;;;8.24;100.00
44359;BME280;30077;52.474;13.326;2023-04-07T18:42:31;101363.09;;;8.26;100.00
44359;BME280;30077;52.474;13.326;2023-04-07T18:47:31;101363.09;;;8.26;100.00
44359;BME280;30077;52.474;13.326;2023-04-07T18:52:31;101364.84;;;8.27;100.00
44359;BME280;30077;52.474;13.326;2023-04-07T18:57:32;101375.59;;;8.20;100.00
44359;BME280;30077;52.474;13.326;2023-04-07T19:02:32;101375.41;;;8.30;100.00
44359;BME280;30077;52.474;13.326;2023-04-07T19:07:32;101380.31;;;8.09;100.00
44359;BME280;30077;52.474;13.326;2023-04-07T19:12:32;101384.28;;;8.29;100.00
44359;BME280;30077;52.474;13.326;2023-04-07T19:17:32;101393.00;;;7.96;100.00
44359;BME280;30077;52.474;13.326;2023-04-07T19:22:33;101399.06;;;8.03;100.00
44359;BME280;30077;52.474;13.326;2023-04-07T19:27:33;101394.22;;;7.82;100.00
44359;BME280;30077;52.474;13.326;2023-04-07T19:32:34;101390.25;;;8.01;100.00
44359;BME280;30077;52.474;13.326;2023-04-07T19:37:35;101397.75;;;7.82;100.00
44359;BME280;30077;52.474;13.326;2023-04-07T19:42:36;101399.59;;;7.79;100.00
44359;BME280;30077;52.474;13.326;2023-04-07T19:47:38;101391.69;;;7.76;100.00
44359;BME280;30077;52.474;13.326;2023-04-07T19:52:38;101401.97;;;7.91;100.00
44359;BME280;30077;52.474;13.326;2023-04-07T19:57:38;101411.91;;;7.83;100.00
44359;BME280;30077;52.474;13.326;2023-04-07T20:02:42;101403.25;;;8.13;100.00
44359;BME280;30077;52.474;13.326;2023-04-07T20:07:42;101396.97;;;8.16;100.00
44359;BME280;30077;52.474;13.326;2023-04-07T20:12:43;101394.19;;;8.22;100.00
44359;BME280;30077;52.474;13.326;2023-04-07T20:17:43;101398.34;;;8.34;100.00
44359;BME280;30077;52.474;13.326;2023-04-07T20:22:44;101392.94;;;8.37;100.00
44359;BME280;30077;52.474;13.326;2023-04-07T20:27:44;101381.59;;;8.30;100.00
44359;BME280;30077;52.474;13.326;2023-04-07T20:32:47;101389.31;;;8.04;100.00
44359;BME280;30077;52.474;13.326;2023-04-07T20:37:48;101384.72;;;8.10;100.00
44359;BME280;30077;52.474;13.326;2023-04-07T20:42:48;101398.09;;;8.06;100.00
44359;BME280;30077;52.474;13.326;2023-04-07T20:47:48;101402.41;;;8.11;100.00
44359;BME280;30077;52.474;13.326;2023-04-07T20:52:48;101393.94;;;7.94;100.00
44359;BME280;30077;52.474;13.326;2023-04-07T20:57:49;101413.88;;;7.75;100.00
44359;BME280;30077;52.474;13.326;2023-04-07T21:02:49;101398.91;;;7.70;100.00
44359;BME280;30077;52.474;13.326;2023-04-07T21:07:49;101385.53;;;8.14;100.00
44359;BME280;30077;52.474;13.326;2023-04-07T21:12:49;101408.66;;;7.68;100.00
44359;BME280;30077;52.474;13.326;2023-04-07T21:17:50;101400.25;;;7.90;100.00
44359;BME280;30077;52.474;13.326;2023-04-07T21:22:50;101400.69;;;8.10;100.00
44359;BME280;30077;52.474;13.326;2023-04-07T21:27:50;101405.00;;;8.14;100.00
44359;BME280;30077;52.474;13.326;2023-04-07T21:32:51;101409.88;;;7.95;100.00
44359;BME280;30077;52.474;13.326;2023-04-07T21:37:51;101404.69;;;7.88;100.00
44359;BME280;30077;52.474;13.326;2023-04-07T21:42:51;101394.75;;;7.57;100.00
44359;BME280;30077;52.474;13.326;2023-04-07T21:47:51;101410.63;;;7.60;100.00
44359;BME280;30077;52.474;13.326;2023-04-07T21:52:52;101403.63;;;7.56;100.00
44359;BME280;30077;52.474;13.326;2023-04-07T21:57:52;101407.00;;;7.64;100.00
44359;BME280;30077;52.474;13.326;2023-04-07T22:02:52;101405.94;;;8.13;100.00
44359;BME280;30077;52.474;13.326;2023-04-07T22:07:55;101401.34;;;7.80;100.00
44359;BME280;30077;52.474;13.326;2023-04-07T22:12:55;101399.25;;;7.94;100.00
44359;BME280;30077;52.474;13.326;2023-04-07T22:17:56;101393.59;;;8.09;100.00
44359;BME280;30077;52.474;13.326;2023-04-07T22:22:56;101406.59;;;7.83;100.00
44359;BME280;30077;52.474;13.326;2023-04-07T22:27:57;101399.59;;;7.79;100.00
44359;BME280;30077;52.474;13.326;2023-04-07T22:32:57;101394.69;;;7.60;100.00
44359;BME280;30077;52.474;13.326;2023-04-07T22:37:58;101395.34;;;7.71;100.00
44359;BME280;30077;52.474;13.326;2023-04-07T22:42:58;101398.00;;;7.71;100.00
44359;BME280;30077;52.474;13.326;2023-04-07T22:47:58;101392.22;;;7.93;100.00
44359;BME280;30077;52.474;13.326;2023-04-07T22:52:58;101400.13;;;7.96;100.00
44359;BME280;30077;52.474;13.326;2023-04-07T22:57:58;101404.09;;;8.15;100.00
44359;BME280;30077;52.474;13.326;2023-04-07T23:02:58;101394.41;;;8.13;100.00
44359;BME280;30077;52.474;13.326;2023-04-07T23:07:59;101401.34;;;7.81;100.00
44359;BME280;30077;52.474;13.326;2023-04-07T23:12:59;101409.06;;;7.92;100.00
44359;BME280;30077;52.474;13.326;2023-04-07T23:17:59;101423.56;;;7.77;100.00
44359;BME280;30077;52.474;13.326;2023-04-07T23:22:59;101424.84;;;8.00;100.00
44359;BME280;30077;52.474;13.326;2023-04-07T23:27:59;101407.22;;;7.95;100.00
44359;BME280;30077;52.474;13.326;2023-04-07T23:33:00;101408.09;;;7.96;100.00
44359;BME280;30077;52.474;13.326;2023-04-07T23:38:00;101401.75;;;8.02;100.00
44359;BME280;30077;52.474;13.326;2023-04-07T23:43:00;101405.50;;;8.32;100.00
44359;BME280;30077;52.474;13.326;2023-04-07T23:48:01;101393.31;;;8.22;100.00
44359;BME280;30077;52.474;13.326;2023-04-07T23:53:01;101409.06;;;7.92;100.00
44359;BME280;30077;52.474;13.326;2023-04-07T23:58:01;101402.91;;;8.29;100.00
